sensor_id;sensor_type;location;lat;lon;timestamp;temperature;humidity
10300;DHT22;5195;48.562;9.192;2023-05-07T00:01:03;19.00;46.60
10300;DHT22;5195;48.562;9.192;2023-05-07T00:03:39;18.70;47.20
10300;DHT22;5195;48.562;9.192;2023-05-07T00:06:14;18.80;46.50
10300;DHT22;5195;48.562;9.192;2023-05-07T00:08:50;19.20;47.10
10300;DHT22;5195;48.562;9.192;2023-05-07T00:11:26;19.50;47.00
10300;DHT22;5195;48.562;9.192;2023-05-07T00:14:03;19.30;47.40
10300;DHT22;5195;48.562;9.192;2023-05-07T00:16:39;18.90;47.80
10300;DHT22;5195;48.562;9.192;2023-05-07T00:19:14;19.00;47.50
10300;DHT22;5195;48.562;9.192;2023-05-07T00:21:50;18.80;48.00
10300;DHT22;5195;48.562;9.192;2023-05-07T00:24:26;19.10;47.00
10300;DHT22;5195;48.562;9.192;2023-05-07T00:27:02;19.10;47.00
10300;DHT22;5195;48.562;9.192;2023-05-07T00:29:38;18.50;48.20
10300;DHT22;5195;48.562;9.192;2023-05-07T00:32:14;18.50;48.20
10300;DHT22;5195;48.562;9.192;2023-05-07T00:34:49;18.20;48.80
10300;DHT22;5195;48.562;9.192;2023-05-07T00:37:25;18.00;49.30
10300;DHT22;5195;48.562;9.192;2023-05-07T00:40:01;17.90;49.80
10300;DHT22;5195;48.562;9.192;2023-05-07T00:42:36;17.80;50.10
10300;DHT22;5195;48.562;9.192;2023-05-07T00:45:13;18.10;48.60
10300;DHT22;5195;48.562;9.192;2023-05-07T00:47:48;18.60;47.50
10300;DHT22;5195;48.562;9.192;2023-05-07T00:50:24;18.90;46.70
10300;DHT22;5195;48.562;9.192;2023-05-07T00:53:00;18.70;47.70
10300;DHT22;5195;48.562;9.192;2023-05-07T00:55:35;18.80;47.60
10300;DHT22;5195;48.562;9.192;2023-05-07T00:58:11;18.70;47.90
10300;DHT22;5195;48.562;9.192;2023-05-07T01:00:46;18.40;48.60
10300;DHT22;5195;48.562;9.192;2023-05-07T01:03:24;18.00;49.90
10300;DHT22;5195;48.562;9.192;2023-05-07T01:05:59;18.00;49.50
10300;DHT22;5195;48.562;9.192;2023-05-07T01:08:36;18.20;48.70
10300;DHT22;5195;48.562;9.192;2023-05-07T01:11:12;18.10;49.00
10300;DHT22;5195;48.562;9.192;2023-05-07T01:13:48;18.00;49.30
10300;DHT22;5195;48.562;9.192;2023-05-07T01:16:24;18.30;48.00
10300;DHT22;5195;48.562;9.192;2023-05-07T01:19:00;18.30;48.40
10300;DHT22;5195;48.562;9.192;2023-05-07T01:21:35;18.00;49.00
10300;DHT22;5195;48.562;9.192;2023-05-07T01:24:10;18.30;48.70
10300;DHT22;5195;48.562;9.192;2023-05-07T01:26:46;18.20;49.30
10300;DHT22;5195;48.562;9.192;2023-05-07T01:29:22;18.20;50.60
10300;DHT22;5195;48.562;9.192;2023-05-07T01:31:58;18.20;50.60
10300;DHT22;5195;48.562;9.192;2023-05-07T01:34:33;18.50;50.20
10300;DHT22;5195;48.562;9.192;2023-05-07T01:37:09;18.60;49.70
10300;DHT22;5195;48.562;9.192;2023-05-07T01:39:45;17.90;50.80
10300;DHT22;5195;48.562;9.192;2023-05-07T01:42:21;17.90;50.80
10300;DHT22;5195;48.562;9.192;2023-05-07T01:44:56;17.60;51.50
10300;DHT22;5195;48.562;9.192;2023-05-07T01:47:32;17.30;52.00
10300;DHT22;5195;48.562;9.192;2023-05-07T01:50:07;17.20;52.60
10300;DHT22;5195;48.562;9.192;2023-05-07T01:52:43;17.50;52.40
10300;DHT22;5195;48.562;9.192;2023-05-07T01:55:19;17.90;51.60
10300;DHT22;5195;48.562;9.192;2023-05-07T01:57:54;18.10;50.70
10300;DHT22;5195;48.562;9.192;2023-05-07T02:00:31;17.90;51.10
10300;DHT22;5195;48.562;9.192;2023-05-07T02:03:05;18.00;51.30
10300;DHT22;5195;48.562;9.192;2023-05-07T02:05:42;17.90;51.70
10300;DHT22;5195;48.562;9.192;2023-05-07T02:08:19;17.30;52.50
10300;DHT22;5195;48.562;9.192;2023-05-07T02:10:54;17.30;52.50
10300;DHT22;5195;48.562;9.192;2023-05-07T02:13:31;17.10;52.90
10300;DHT22;5195;48.562;9.192;2023-05-07T02:16:05;16.90;53.00
10300;DHT22;5195;48.562;9.192;2023-05-07T02:18:41;16.80;53.10
10300;DHT22;5195;48.562;9.192;2023-05-07T02:21:18;16.70;53.40
10300;DHT22;5195;48.562;9.192;2023-05-07T02:23:53;16.70;53.50
10300;DHT22;5195;48.562;9.192;2023-05-07T02:26:29;17.00;52.10
10300;DHT22;5195;48.562;9.192;2023-05-07T02:29:04;17.00;52.20
10300;DHT22;5195;48.562;9.192;2023-05-07T02:31:41;17.70;50.40
10300;DHT22;5195;48.562;9.192;2023-05-07T02:34:16;17.70;50.30
10300;DHT22;5195;48.562;9.192;2023-05-07T02:36:52;18.00;49.50
10300;DHT22;5195;48.562;9.192;2023-05-07T02:39:27;17.80;50.00
10300;DHT22;5195;48.562;9.192;2023-05-07T02:42:03;17.50;50.70
10300;DHT22;5195;48.562;9.192;2023-05-07T02:44:39;17.00;52.00
10300;DHT22;5195;48.562;9.192;2023-05-07T02:47:15;16.90;51.90
10300;DHT22;5195;48.562;9.192;2023-05-07T02:49:51;17.60;52.10
10300;DHT22;5195;48.562;9.192;2023-05-07T02:52:27;17.60;51.40
10300;DHT22;5195;48.562;9.192;2023-05-07T02:55:03;17.50;51.40
10300;DHT22;5195;48.562;9.192;2023-05-07T02:57:38;17.10;51.80
10300;DHT22;5195;48.562;9.192;2023-05-07T03:00:15;17.30;50.70
10300;DHT22;5195;48.562;9.192;2023-05-07T03:02:49;17.10;51.20
10300;DHT22;5195;48.562;9.192;2023-05-07T03:05:25;17.30;50.70
10300;DHT22;5195;48.562;9.192;2023-05-07T03:08:01;17.30;50.80
10300;DHT22;5195;48.562;9.192;2023-05-07T03:10:37;17.30;50.80
10300;DHT22;5195;48.562;9.192;2023-05-07T03:13:12;17.20;51.30
10300;DHT22;5195;48.562;9.192;2023-05-07T03:15:48;17.40;50.80
10300;DHT22;5195;48.562;9.192;2023-05-07T03:18:24;17.20;50.90
10300;DHT22;5195;48.562;9.192;2023-05-07T03:21:01;17.30;50.60
10300;DHT22;5195;48.562;9.192;2023-05-07T03:23:37;17.30;51.20
10300;DHT22;5195;48.562;9.192;2023-05-07T03:26:13;17.30;51.20
10300;DHT22;5195;48.562;9.192;2023-05-07T03:28:48;17.30;51.60
10300;DHT22;5195;48.562;9.192;2023-05-07T03:31:24;17.00;52.00
10300;DHT22;5195;48.562;9.192;2023-05-07T03:33:59;16.70;52.50
10300;DHT22;5195;48.562;9.192;2023-05-07T03:36:35;16.80;52.90
10300;DHT22;5195;48.562;9.192;2023-05-07T03:39:10;17.00;52.10
10300;DHT22;5195;48.562;9.192;2023-05-07T03:41:46;16.90;52.30
10300;DHT22;5195;48.562;9.192;2023-05-07T03:44:22;16.90;52.30
10300;DHT22;5195;48.562;9.192;2023-05-07T03:46:58;16.80;52.10
10300;DHT22;5195;48.562;9.192;2023-05-07T03:49:34;16.80;52.20
10300;DHT22;5195;48.562;9.192;2023-05-07T03:52:09;16.70;52.60
10300;DHT22;5195;48.562;9.192;2023-05-07T03:54:45;17.00;51.70
10300;DHT22;5195;48.562;9.192;2023-05-07T03:57:21;17.00;51.70
10300;DHT22;5195;48.562;9.192;2023-05-07T03:59:57;17.20;51.20
10300;DHT22;5195;48.562;9.192;2023-05-07T04:02:33;17.40;50.60
10300;DHT22;5195;48.562;9.192;2023-05-07T04:05:09;17.40;50.60
10300;DHT22;5195;48.562;9.192;2023-05-07T04:07:44;17.50;50.40
10300;DHT22;5195;48.562;9.192;2023-05-07T04:10:20;17.10;50.90
10300;DHT22;5195;48.562;9.192;2023-05-07T04:12:55;17.10;50.80
10300;DHT22;5195;48.562;9.192;2023-05-07T04:15:31;16.80;51.40
10300;DHT22;5195;48.562;9.192;2023-05-07T04:18:06;16.80;51.30
10300;DHT22;5195;48.562;9.192;2023-05-07T04:20:42;17.00;50.90
10300;DHT22;5195;48.562;9.192;2023-05-07T04:23:18;16.80;51.50
10300;DHT22;5195;48.562;9.192;2023-05-07T04:25:53;16.90;52.20
10300;DHT22;5195;48.562;9.192;2023-05-07T04:28:29;16.70;52.50
10300;DHT22;5195;48.562;9.192;2023-05-07T04:31:04;16.40;52.70
10300;DHT22;5195;48.562;9.192;2023-05-07T04:36:50;15.90;53.50
10300;DHT22;5195;48.562;9.192;2023-05-07T04:39:25;15.70;53.90
10300;DHT22;5195;48.562;9.192;2023-05-07T04:42:01;16.00;53.30
10300;DHT22;5195;48.562;9.192;2023-05-07T04:44:37;16.40;52.70
10300;DHT22;5195;48.562;9.192;2023-05-07T04:47:12;16.70;52.20
10300;DHT22;5195;48.562;9.192;2023-05-07T04:49:48;16.60;52.70
10300;DHT22;5195;48.562;9.192;2023-05-07T04:52:23;16.30;53.30
10300;DHT22;5195;48.562;9.192;2023-05-07T04:54:59;16.50;53.10
10300;DHT22;5195;48.562;9.192;2023-05-07T04:57:34;16.50;53.40
10300;DHT22;5195;48.562;9.192;2023-05-07T05:00:10;16.30;53.90
10300;DHT22;5195;48.562;9.192;2023-05-07T05:02:46;16.20;54.40
10300;DHT22;5195;48.562;9.192;2023-05-07T05:05:21;16.50;53.80
10300;DHT22;5195;48.562;9.192;2023-05-07T05:07:57;16.90;53.00
10300;DHT22;5195;48.562;9.192;2023-05-07T05:10:32;16.90;53.20
10300;DHT22;5195;48.562;9.192;2023-05-07T05:13:08;16.80;53.10
10300;DHT22;5195;48.562;9.192;2023-05-07T05:15:44;16.60;54.00
10300;DHT22;5195;48.562;9.192;2023-05-07T05:18:20;17.30;52.90
10300;DHT22;5195;48.562;9.192;2023-05-07T05:20:57;17.30;52.90
10300;DHT22;5195;48.562;9.192;2023-05-07T05:23:32;17.60;52.10
10300;DHT22;5195;48.562;9.192;2023-05-07T05:26:09;17.70;52.20
10300;DHT22;5195;48.562;9.192;2023-05-07T05:28:44;17.70;52.20
10300;DHT22;5195;48.562;9.192;2023-05-07T05:31:21;18.20;51.50
10300;DHT22;5195;48.562;9.192;2023-05-07T05:33:56;18.20;51.50
10300;DHT22;5195;48.562;9.192;2023-05-07T05:36:32;18.00;51.90
10300;DHT22;5195;48.562;9.192;2023-05-07T05:39:07;17.70;52.60
10300;DHT22;5195;48.562;9.192;2023-05-07T05:41:45;17.80;51.80
10300;DHT22;5195;48.562;9.192;2023-05-07T05:44:22;18.10;51.50
10300;DHT22;5195;48.562;9.192;2023-05-07T05:47:00;18.30;53.30
10300;DHT22;5195;48.562;9.192;2023-05-07T05:49:39;18.70;51.80
10300;DHT22;5195;48.562;9.192;2023-05-07T05:52:14;18.90;51.20
10300;DHT22;5195;48.562;9.192;2023-05-07T05:54:53;19.40;50.00
10300;DHT22;5195;48.562;9.192;2023-05-07T05:57:27;19.40;50.00
10300;DHT22;5195;48.562;9.192;2023-05-07T06:00:03;19.60;49.70
10300;DHT22;5195;48.562;9.192;2023-05-07T06:02:39;19.80;49.00
10300;DHT22;5195;48.562;9.192;2023-05-07T06:05:14;19.60;49.90
10300;DHT22;5195;48.562;9.192;2023-05-07T06:07:53;19.20;50.70
10300;DHT22;5195;48.562;9.192;2023-05-07T06:10:30;19.50;50.10
10300;DHT22;5195;48.562;9.192;2023-05-07T06:13:05;19.50;50.00
10300;DHT22;5195;48.562;9.192;2023-05-07T06:15:41;19.40;50.70
10300;DHT22;5195;48.562;9.192;2023-05-07T06:18:16;19.20;51.40
10300;DHT22;5195;48.562;9.192;2023-05-07T06:20:52;19.10;51.90
10300;DHT22;5195;48.562;9.192;2023-05-07T06:23:29;19.30;51.00
10300;DHT22;5195;48.562;9.192;2023-05-07T06:26:05;19.70;50.40
10300;DHT22;5195;48.562;9.192;2023-05-07T06:32:16;20.00;50.20
10300;DHT22;5195;48.562;9.192;2023-05-07T06:34:51;20.50;49.60
10300;DHT22;5195;48.562;9.192;2023-05-07T06:37:27;20.90;49.00
10300;DHT22;5195;48.562;9.192;2023-05-07T06:40:02;21.40;48.80
10300;DHT22;5195;48.562;9.192;2023-05-07T06:42:38;21.60;49.90
10300;DHT22;5195;48.562;9.192;2023-05-07T06:45:14;21.90;46.90
10300;DHT22;5195;48.562;9.192;2023-05-07T06:47:49;22.10;48.60
10300;DHT22;5195;48.562;9.192;2023-05-07T06:50:26;22.10;48.40
10300;DHT22;5195;48.562;9.192;2023-05-07T06:53:02;22.10;48.90
10300;DHT22;5195;48.562;9.192;2023-05-07T06:55:38;22.50;46.20
10300;DHT22;5195;48.562;9.192;2023-05-07T06:58:14;22.80;44.50
10300;DHT22;5195;48.562;9.192;2023-05-07T07:00:49;22.80;44.50
10300;DHT22;5195;48.562;9.192;2023-05-07T07:03:27;22.70;45.50
10300;DHT22;5195;48.562;9.192;2023-05-07T07:06:02;22.50;45.80
10300;DHT22;5195;48.562;9.192;2023-05-07T07:08:42;22.50;45.50
10300;DHT22;5195;48.562;9.192;2023-05-07T07:11:17;22.50;44.80
10300;DHT22;5195;48.562;9.192;2023-05-07T07:13:54;21.90;46.40
10300;DHT22;5195;48.562;9.192;2023-05-07T07:16:29;21.90;45.80
10300;DHT22;5195;48.562;9.192;2023-05-07T07:19:05;22.10;45.00
10300;DHT22;5195;48.562;9.192;2023-05-07T07:21:42;22.30;44.70
10300;DHT22;5195;48.562;9.192;2023-05-07T07:24:17;22.60;45.30
10300;DHT22;5195;48.562;9.192;2023-05-07T07:26:53;22.90;44.40
10300;DHT22;5195;48.562;9.192;2023-05-07T07:29:28;22.80;45.20
10300;DHT22;5195;48.562;9.192;2023-05-07T07:32:05;22.70;46.40
10300;DHT22;5195;48.562;9.192;2023-05-07T07:34:42;23.60;44.40
10300;DHT22;5195;48.562;9.192;2023-05-07T07:37:17;23.60;44.10
10300;DHT22;5195;48.562;9.192;2023-05-07T07:39:53;24.10;43.20
10300;DHT22;5195;48.562;9.192;2023-05-07T07:42:28;24.20;44.10
10300;DHT22;5195;48.562;9.192;2023-05-07T07:45:04;24.00;44.80
10300;DHT22;5195;48.562;9.192;2023-05-07T07:47:40;23.90;45.70
10300;DHT22;5195;48.562;9.192;2023-05-07T07:50:15;24.10;44.40
10300;DHT22;5195;48.562;9.192;2023-05-07T07:52:52;24.00;45.00
10300;DHT22;5195;48.562;9.192;2023-05-07T07:55:28;24.10;45.40
10300;DHT22;5195;48.562;9.192;2023-05-07T07:58:05;24.10;45.30
10300;DHT22;5195;48.562;9.192;2023-05-07T08:00:41;24.50;43.70
10300;DHT22;5195;48.562;9.192;2023-05-07T08:03:17;24.70;44.40
10300;DHT22;5195;48.562;9.192;2023-05-07T08:05:53;24.70;44.40
10300;DHT22;5195;48.562;9.192;2023-05-07T08:08:28;24.80;44.10
10300;DHT22;5195;48.562;9.192;2023-05-07T08:11:04;24.60;44.60
10300;DHT22;5195;48.562;9.192;2023-05-07T08:13:39;24.30;45.10
10300;DHT22;5195;48.562;9.192;2023-05-07T08:16:15;24.30;44.40
10300;DHT22;5195;48.562;9.192;2023-05-07T08:18:51;24.60;44.10
10300;DHT22;5195;48.562;9.192;2023-05-07T08:21:26;24.60;44.70
10300;DHT22;5195;48.562;9.192;2023-05-07T08:24:02;24.40;45.50
10300;DHT22;5195;48.562;9.192;2023-05-07T08:26:37;24.30;46.10
10300;DHT22;5195;48.562;9.192;2023-05-07T08:32:48;25.30;43.30
10300;DHT22;5195;48.562;9.192;2023-05-07T08:35:24;25.40;44.00
10300;DHT22;5195;48.562;9.192;2023-05-07T08:37:59;25.60;42.60
10300;DHT22;5195;48.562;9.192;2023-05-07T08:40:39;26.10;41.70
10300;DHT22;5195;48.562;9.192;2023-05-07T08:43:14;26.30;42.40
10300;DHT22;5195;48.562;9.192;2023-05-07T08:45:50;26.20;43.00
10300;DHT22;5195;48.562;9.192;2023-05-07T08:48:25;26.50;40.90
10300;DHT22;5195;48.562;9.192;2023-05-07T08:51:01;26.60;41.80
10300;DHT22;5195;48.562;9.192;2023-05-07T08:53:45;27.00;40.00
10300;DHT22;5195;48.562;9.192;2023-05-07T08:56:10;27.00;41.00
10300;DHT22;5195;48.562;9.192;2023-05-07T08:58:37;27.00;41.60
10300;DHT22;5195;48.562;9.192;2023-05-07T09:01:08;26.70;41.70
10300;DHT22;5195;48.562;9.192;2023-05-07T09:03:37;26.70;41.60
10300;DHT22;5195;48.562;9.192;2023-05-07T09:06:03;26.60;41.90
10300;DHT22;5195;48.562;9.192;2023-05-07T09:08:28;26.50;42.20
10300;DHT22;5195;48.562;9.192;2023-05-07T09:10:54;26.50;42.20
10300;DHT22;5195;48.562;9.192;2023-05-07T09:13:19;26.80;39.50
10300;DHT22;5195;48.562;9.192;2023-05-07T09:15:45;27.00;40.70
10300;DHT22;5195;48.562;9.192;2023-05-07T09:18:12;27.30;39.30
10300;DHT22;5195;48.562;9.192;2023-05-07T09:20:37;27.50;40.20
10300;DHT22;5195;48.562;9.192;2023-05-07T09:23:03;27.50;40.60
10300;DHT22;5195;48.562;9.192;2023-05-07T09:25:29;27.40;40.90
10300;DHT22;5195;48.562;9.192;2023-05-07T09:27:54;27.30;40.80
10300;DHT22;5195;48.562;9.192;2023-05-07T09:30:20;27.10;40.90
10300;DHT22;5195;48.562;9.192;2023-05-07T09:32:45;27.00;41.40
10300;DHT22;5195;48.562;9.192;2023-05-07T09:35:15;27.10;41.10
10300;DHT22;5195;48.562;9.192;2023-05-07T09:37:40;27.40;39.50
10300;DHT22;5195;48.562;9.192;2023-05-07T09:40:06;27.70;39.30
10300;DHT22;5195;48.562;9.192;2023-05-07T09:42:32;27.70;39.90
10300;DHT22;5195;48.562;9.192;2023-05-07T09:44:59;27.60;39.90
10300;DHT22;5195;48.562;9.192;2023-05-07T09:47:24;27.70;37.60
10300;DHT22;5195;48.562;9.192;2023-05-07T09:49:50;27.70;38.90
10300;DHT22;5195;48.562;9.192;2023-05-07T09:52:16;28.10;37.20
10300;DHT22;5195;48.562;9.192;2023-05-07T09:54:42;28.10;37.10
10300;DHT22;5195;48.562;9.192;2023-05-07T09:57:07;28.10;38.30
10300;DHT22;5195;48.562;9.192;2023-05-07T09:59:33;28.30;37.70
10300;DHT22;5195;48.562;9.192;2023-05-07T10:01:59;28.50;37.00
10300;DHT22;5195;48.562;9.192;2023-05-07T10:04:28;28.50;37.80
10300;DHT22;5195;48.562;9.192;2023-05-07T10:06:53;28.60;37.40
10300;DHT22;5195;48.562;9.192;2023-05-07T10:09:19;28.60;38.30
10300;DHT22;5195;48.562;9.192;2023-05-07T10:11:44;28.70;35.60
10300;DHT22;5195;48.562;9.192;2023-05-07T10:14:10;28.90;36.00
10300;DHT22;5195;48.562;9.192;2023-05-07T10:16:36;28.80;37.20
10300;DHT22;5195;48.562;9.192;2023-05-07T10:19:03;28.70;37.00
10300;DHT22;5195;48.562;9.192;2023-05-07T10:21:29;28.60;37.70
10300;DHT22;5195;48.562;9.192;2023-05-07T10:24:02;28.40;38.20
10300;DHT22;5195;48.562;9.192;2023-05-07T10:26:25;28.40;38.60
10300;DHT22;5195;48.562;9.192;2023-05-07T10:28:50;28.30;38.10
10300;DHT22;5195;48.562;9.192;2023-05-07T10:31:57;28.30;38.30
10300;DHT22;5195;48.562;9.192;2023-05-07T10:34:21;28.30;37.70
10300;DHT22;5195;48.562;9.192;2023-05-07T10:36:46;28.40;37.90
10300;DHT22;5195;48.562;9.192;2023-05-07T10:39:11;28.70;35.50
10300;DHT22;5195;48.562;9.192;2023-05-07T10:41:37;29.10;34.90
10300;DHT22;5195;48.562;9.192;2023-05-07T10:44:24;29.10;35.50
10300;DHT22;5195;48.562;9.192;2023-05-07T10:47:03;28.90;35.50
10300;DHT22;5195;48.562;9.192;2023-05-07T10:49:24;29.00;33.70
10300;DHT22;5195;48.562;9.192;2023-05-07T10:52:23;29.00;34.70
10300;DHT22;5195;48.562;9.192;2023-05-07T10:55:19;28.80;35.00
10300;DHT22;5195;48.562;9.192;2023-05-07T10:57:54;28.60;35.70
10300;DHT22;5195;48.562;9.192;2023-05-07T11:03:08;29.30;33.20
10300;DHT22;5195;48.562;9.192;2023-05-07T11:05:44;29.30;34.40
10300;DHT22;5195;48.562;9.192;2023-05-07T11:08:20;29.20;35.10
10300;DHT22;5195;48.562;9.192;2023-05-07T11:10:59;29.00;35.30
10300;DHT22;5195;48.562;9.192;2023-05-07T11:13:43;29.00;35.20
10300;DHT22;5195;48.562;9.192;2023-05-07T11:16:25;29.20;33.20
10300;DHT22;5195;48.562;9.192;2023-05-07T11:18:55;29.30;34.40
10300;DHT22;5195;48.562;9.192;2023-05-07T11:21:31;29.40;32.80
10300;DHT22;5195;48.562;9.192;2023-05-07T11:24:10;29.40;33.90
10300;DHT22;5195;48.562;9.192;2023-05-07T11:26:49;29.20;34.10
10300;DHT22;5195;48.562;9.192;2023-05-07T11:29:24;29.40;33.40
10300;DHT22;5195;48.562;9.192;2023-05-07T11:32:00;29.70;33.10
10300;DHT22;5195;48.562;9.192;2023-05-07T11:34:35;30.00;32.60
10300;DHT22;5195;48.562;9.192;2023-05-07T11:37:16;29.90;33.10
10300;DHT22;5195;48.562;9.192;2023-05-07T11:39:48;29.90;33.00
10300;DHT22;5195;48.562;9.192;2023-05-07T11:42:35;29.70;33.20
10300;DHT22;5195;48.562;9.192;2023-05-07T11:45:10;29.50;31.50
10300;DHT22;5195;48.562;9.192;2023-05-07T11:47:46;29.40;32.90
10300;DHT22;5195;48.562;9.192;2023-05-07T11:50:22;29.30;34.30
10300;DHT22;5195;48.562;9.192;2023-05-07T11:52:58;29.30;34.30
10300;DHT22;5195;48.562;9.192;2023-05-07T11:55:34;29.00;34.90
10300;DHT22;5195;48.562;9.192;2023-05-07T11:58:10;28.60;35.30
10300;DHT22;5195;48.562;9.192;2023-05-07T12:00:53;28.50;35.40
10300;DHT22;5195;48.562;9.192;2023-05-07T12:03:29;28.50;34.70
10300;DHT22;5195;48.562;9.192;2023-05-07T12:06:07;28.50;34.60
10300;DHT22;5195;48.562;9.192;2023-05-07T12:08:43;28.50;34.70
10300;DHT22;5195;48.562;9.192;2023-05-07T12:11:22;28.10;35.40
10300;DHT22;5195;48.562;9.192;2023-05-07T12:13:57;27.60;36.30
10300;DHT22;5195;48.562;9.192;2023-05-07T12:16:32;27.10;37.20
10300;DHT22;5195;48.562;9.192;2023-05-07T12:19:08;26.70;37.90
10300;DHT22;5195;48.562;9.192;2023-05-07T12:21:43;26.40;38.40
10300;DHT22;5195;48.562;9.192;2023-05-07T12:24:21;26.50;38.10
10300;DHT22;5195;48.562;9.192;2023-05-07T12:26:56;26.70;37.40
10300;DHT22;5195;48.562;9.192;2023-05-07T12:29:33;26.40;36.30
10300;DHT22;5195;48.562;9.192;2023-05-07T12:32:09;26.40;36.30
10300;DHT22;5195;48.562;9.192;2023-05-07T12:34:44;26.60;36.90
10300;DHT22;5195;48.562;9.192;2023-05-07T12:37:26;26.30;37.20
10300;DHT22;5195;48.562;9.192;2023-05-07T12:40:09;25.90;37.90
10300;DHT22;5195;48.562;9.192;2023-05-07T12:42:45;25.60;38.50
10300;DHT22;5195;48.562;9.192;2023-05-07T12:45:21;25.60;39.00
10300;DHT22;5195;48.562;9.192;2023-05-07T12:48:00;25.60;38.70
10300;DHT22;5195;48.562;9.192;2023-05-07T12:50:33;25.80;38.90
10300;DHT22;5195;48.562;9.192;2023-05-07T12:53:10;25.60;39.30
10300;DHT22;5195;48.562;9.192;2023-05-07T12:55:45;25.60;39.10
10300;DHT22;5195;48.562;9.192;2023-05-07T12:58:30;25.60;38.90
10300;DHT22;5195;48.562;9.192;2023-05-07T13:01:06;25.60;38.70
10300;DHT22;5195;48.562;9.192;2023-05-07T13:03:41;25.50;38.90
10300;DHT22;5195;48.562;9.192;2023-05-07T13:06:19;25.40;39.60
10300;DHT22;5195;48.562;9.192;2023-05-07T13:08:56;24.90;41.70
10300;DHT22;5195;48.562;9.192;2023-05-07T13:11:31;24.90;41.70
10300;DHT22;5195;48.562;9.192;2023-05-07T13:14:07;24.60;41.70
10300;DHT22;5195;48.562;9.192;2023-05-07T13:16:43;24.10;43.00
10300;DHT22;5195;48.562;9.192;2023-05-07T13:19:19;24.10;43.00
10300;DHT22;5195;48.562;9.192;2023-05-07T13:21:54;23.50;43.40
10300;DHT22;5195;48.562;9.192;2023-05-07T13:24:30;22.80;44.90
10300;DHT22;5195;48.562;9.192;2023-05-07T13:27:06;22.20;46.40
10300;DHT22;5195;48.562;9.192;2023-05-07T13:29:41;21.80;47.40
10300;DHT22;5195;48.562;9.192;2023-05-07T13:32:18;21.50;50.00
10300;DHT22;5195;48.562;9.192;2023-05-07T13:34:53;21.50;50.00
10300;DHT22;5195;48.562;9.192;2023-05-07T13:37:29;21.60;49.80
10300;DHT22;5195;48.562;9.192;2023-05-07T13:40:05;21.20;49.00
10300;DHT22;5195;48.562;9.192;2023-05-07T13:42:40;21.00;50.30
10300;DHT22;5195;48.562;9.192;2023-05-07T13:45:17;20.70;51.00
10300;DHT22;5195;48.562;9.192;2023-05-07T13:47:52;20.20;52.00
10300;DHT22;5195;48.562;9.192;2023-05-07T13:50:28;20.00;55.40
10300;DHT22;5195;48.562;9.192;2023-05-07T13:53:05;19.90;55.40
10300;DHT22;5195;48.562;9.192;2023-05-07T13:55:41;19.80;54.60
10300;DHT22;5195;48.562;9.192;2023-05-07T13:58:18;19.80;56.40
10300;DHT22;5195;48.562;9.192;2023-05-07T14:00:54;19.20;57.20
10300;DHT22;5195;48.562;9.192;2023-05-07T14:03:30;19.10;56.70
10300;DHT22;5195;48.562;9.192;2023-05-07T14:06:06;19.20;58.30
10300;DHT22;5195;48.562;9.192;2023-05-07T14:08:41;19.00;58.00
10300;DHT22;5195;48.562;9.192;2023-05-07T14:11:18;18.60;58.60
10300;DHT22;5195;48.562;9.192;2023-05-07T14:13:54;19.20;60.40
10300;DHT22;5195;48.562;9.192;2023-05-07T14:16:30;19.10;60.30
10300;DHT22;5195;48.562;9.192;2023-05-07T14:19:06;19.50;60.80
10300;DHT22;5195;48.562;9.192;2023-05-07T14:21:42;19.50;60.40
10300;DHT22;5195;48.562;9.192;2023-05-07T14:24:17;19.50;60.40
10300;DHT22;5195;48.562;9.192;2023-05-07T14:26:53;19.60;59.70
10300;DHT22;5195;48.562;9.192;2023-05-07T14:29:29;19.70;59.60
10300;DHT22;5195;48.562;9.192;2023-05-07T14:32:04;19.80;59.60
10300;DHT22;5195;48.562;9.192;2023-05-07T14:34:40;19.40;59.80
10300;DHT22;5195;48.562;9.192;2023-05-07T14:37:15;19.40;60.40
10300;DHT22;5195;48.562;9.192;2023-05-07T14:39:52;18.70;61.80
10300;DHT22;5195;48.562;9.192;2023-05-07T14:42:29;18.70;61.80
10300;DHT22;5195;48.562;9.192;2023-05-07T14:45:04;18.90;62.80
10300;DHT22;5195;48.562;9.192;2023-05-07T14:47:40;19.20;62.20
10300;DHT22;5195;48.562;9.192;2023-05-07T14:50:16;19.40;61.40
10300;DHT22;5195;48.562;9.192;2023-05-07T14:52:51;19.50;61.90
10300;DHT22;5195;48.562;9.192;2023-05-07T14:55:27;19.60;61.30
10300;DHT22;5195;48.562;9.192;2023-05-07T14:58:04;19.40;61.50
10300;DHT22;5195;48.562;9.192;2023-05-07T15:00:40;19.20;62.00
10300;DHT22;5195;48.562;9.192;2023-05-07T15:03:16;19.20;62.00
10300;DHT22;5195;48.562;9.192;2023-05-07T15:05:51;18.90;62.90
10300;DHT22;5195;48.562;9.192;2023-05-07T15:08:27;18.60;63.80
10300;DHT22;5195;48.562;9.192;2023-05-07T15:11:03;18.50;64.40
10300;DHT22;5195;48.562;9.192;2023-05-07T15:13:41;18.70;63.70
10300;DHT22;5195;48.562;9.192;2023-05-07T15:16:17;18.80;64.00
10300;DHT22;5195;48.562;9.192;2023-05-07T15:18:52;18.60;63.80
10300;DHT22;5195;48.562;9.192;2023-05-07T15:21:28;18.60;64.20
10300;DHT22;5195;48.562;9.192;2023-05-07T15:24:04;18.50;64.80
10300;DHT22;5195;48.562;9.192;2023-05-07T15:26:40;19.30;63.50
10300;DHT22;5195;48.562;9.192;2023-05-07T15:29:15;19.30;63.50
10300;DHT22;5195;48.562;9.192;2023-05-07T15:31:51;19.70;62.00
10300;DHT22;5195;48.562;9.192;2023-05-07T15:34:26;19.70;62.00
10300;DHT22;5195;48.562;9.192;2023-05-07T15:37:02;19.50;63.00
10300;DHT22;5195;48.562;9.192;2023-05-07T15:39:38;19.40;63.60
10300;DHT22;5195;48.562;9.192;2023-05-07T15:42:13;19.70;63.40
10300;DHT22;5195;48.562;9.192;2023-05-07T15:44:49;20.10;61.90
10300;DHT22;5195;48.562;9.192;2023-05-07T15:47:24;20.20;61.80
10300;DHT22;5195;48.562;9.192;2023-05-07T15:50:00;20.40;61.90
10300;DHT22;5195;48.562;9.192;2023-05-07T15:52:36;20.40;62.00
10300;DHT22;5195;48.562;9.192;2023-05-07T15:55:12;20.50;60.90
10300;DHT22;5195;48.562;9.192;2023-05-07T15:57:47;20.40;61.30
10300;DHT22;5195;48.562;9.192;2023-05-07T16:00:25;20.60;61.40
10300;DHT22;5195;48.562;9.192;2023-05-07T16:02:58;20.50;61.60
10300;DHT22;5195;48.562;9.192;2023-05-07T16:05:35;20.40;62.00
10300;DHT22;5195;48.562;9.192;2023-05-07T16:08:10;20.40;62.00
10300;DHT22;5195;48.562;9.192;2023-05-07T16:10:46;20.40;62.20
10300;DHT22;5195;48.562;9.192;2023-05-07T16:13:21;20.20;62.80
10300;DHT22;5195;48.562;9.192;2023-05-07T16:15:57;20.10;63.40
10300;DHT22;5195;48.562;9.192;2023-05-07T16:18:34;20.60;62.10
10300;DHT22;5195;48.562;9.192;2023-05-07T16:21:09;20.60;62.10
10300;DHT22;5195;48.562;9.192;2023-05-07T16:23:45;20.50;62.20
10300;DHT22;5195;48.562;9.192;2023-05-07T16:26:20;20.60;61.50
10300;DHT22;5195;48.562;9.192;2023-05-07T16:28:56;20.60;61.90
10300;DHT22;5195;48.562;9.192;2023-05-07T16:31:32;20.30;62.40
10300;DHT22;5195;48.562;9.192;2023-05-07T16:34:08;20.40;61.80
10300;DHT22;5195;48.562;9.192;2023-05-07T16:36:44;20.20;62.20
10300;DHT22;5195;48.562;9.192;2023-05-07T16:39:20;20.10;61.80
10300;DHT22;5195;48.562;9.192;2023-05-07T16:41:55;19.90;62.40
10300;DHT22;5195;48.562;9.192;2023-05-07T16:44:31;19.80;63.00
10300;DHT22;5195;48.562;9.192;2023-05-07T16:47:07;20.30;61.50